createdAt,value
2022-08-16T00:00:22.118Z,3.8
2022-08-16T00:02:16.074Z,3.5
2022-08-16T00:04:16.595Z,3.7
2022-08-16T00:06:16.548Z,4
2022-08-16T00:08:35.789Z,3.4
2022-08-16T00:10:21.085Z,3.5
2022-08-16T00:12:18.578Z,3.6
2022-08-16T00:14:22.537Z,3.3
2022-08-16T00:17:11.479Z,3.3
2022-08-16T00:18:19.353Z,3.4
2022-08-16T00:20:21.039Z,3.5
2022-08-16T00:22:20.833Z,3.2
2022-08-16T00:24:31.110Z,3.5
2022-08-16T00:26:34.592Z,3.2
2022-08-16T00:28:20.483Z,3.3
2022-08-16T00:30:29.000Z,3.6
2022-08-16T00:32:21.016Z,3.7
2022-08-16T00:34:22.265Z,3.5
2022-08-16T00:36:21.677Z,3.7
2022-08-16T00:38:40.343Z,3.9
2022-08-16T00:40:34.322Z,3.8
2022-08-16T00:42:30.095Z,3.7
2022-08-16T00:44:23.138Z,3.6
2022-08-16T00:46:33.834Z,3.7
2022-08-16T00:48:31.347Z,3.2
2022-08-16T00:50:36.567Z,3.7
2022-08-16T00:52:30.072Z,3.3
2022-08-16T00:54:28.460Z,3.7
2022-08-16T00:56:57.867Z,3.4
2022-08-16T00:58:35.022Z,3.3
2022-08-16T01:00:26.142Z,3.2
2022-08-16T01:02:30.850Z,3.7
2022-08-16T01:04:29.836Z,3.9
2022-08-16T01:06:32.476Z,4
2022-08-16T01:08:35.026Z,4.3
2022-08-16T01:10:31.955Z,4
2022-08-16T01:12:27.634Z,3.9
2022-08-16T01:14:32.323Z,4.1
2022-08-16T01:16:29.967Z,4.1
2022-08-16T01:18:40.803Z,4
2022-08-16T01:20:32.728Z,4.4
2022-08-16T01:22:47.778Z,4.1
2022-08-16T01:24:52.726Z,4.5
2022-08-16T01:26:34.157Z,4.2
2022-08-16T01:28:32.338Z,3.9
2022-08-16T01:30:32.582Z,4
2022-08-16T01:32:34.597Z,3.6
2022-08-16T01:34:31.305Z,4.2
2022-08-16T01:36:33.812Z,4
2022-08-16T01:38:34.481Z,3.8
2022-08-16T01:40:32.196Z,4.4
2022-08-16T01:42:32.953Z,4
2022-08-16T01:44:37.289Z,3.6
2022-08-16T01:46:40.008Z,3.8
2022-08-16T01:48:34.294Z,3.5
2022-08-16T01:50:59.680Z,4
2022-08-16T01:52:37.251Z,3.8
2022-08-16T01:54:34.759Z,4
2022-08-16T01:56:35.819Z,4.3
2022-08-16T01:58:35.182Z,3.8
2022-08-16T02:00:35.240Z,4.3
2022-08-16T02:02:35.904Z,5.5
2022-08-16T02:04:48.139Z,4.8
2022-08-16T02:06:38.604Z,4.5
2022-08-16T02:08:36.414Z,3.8
2022-08-16T02:10:37.776Z,3.9
2022-08-16T02:12:50.274Z,4.5
2022-08-16T02:14:38.238Z,4.3
2022-08-16T02:16:37.653Z,5
2022-08-16T02:18:38.427Z,4.9
2022-08-16T02:20:39.688Z,4.6
2022-08-16T02:22:38.976Z,4.5
2022-08-16T02:24:41.241Z,5
2022-08-16T02:26:39.127Z,4.4
2022-08-16T02:28:39.380Z,4.4
2022-08-16T02:30:44.064Z,4.4
2022-08-16T02:32:50.072Z,4.3
2022-08-16T02:34:40.815Z,4.1
2022-08-16T02:36:49.967Z,3.7
2022-08-16T02:38:41.059Z,4.1
2022-08-16T02:40:42.189Z,4.1
2022-08-16T02:42:41.519Z,4
2022-08-16T02:44:42.391Z,4.1
2022-08-16T02:46:49.811Z,3.7
2022-08-16T02:48:49.181Z,3.9
2022-08-16T02:50:53.546Z,6.1
2022-08-16T02:52:44.188Z,7.2
2022-08-16T02:54:43.881Z,7.7
2022-08-16T02:56:47.839Z,7.5
2022-08-16T02:58:44.569Z,7.3
2022-08-16T03:00:45.453Z,6.4
2022-08-16T03:02:45.897Z,6.7
2022-08-16T03:04:52.558Z,6.6
2022-08-16T03:06:56.490Z,7.4
2022-08-16T03:08:51.801Z,7.5
2022-08-16T03:10:45.930Z,6.4
2022-08-16T03:12:55.706Z,6.6
2022-08-16T03:14:47.619Z,6
2022-08-16T03:17:00.201Z,5.8
2022-08-16T03:18:47.898Z,5.1
2022-08-16T03:20:55.709Z,4.7
2022-08-16T03:22:48.465Z,4.3
2022-08-16T03:24:48.355Z,4
2022-08-16T03:26:48.880Z,4.2
2022-08-16T03:28:49.943Z,3.9
2022-08-16T03:30:49.915Z,3.8
2022-08-16T03:32:51.526Z,4
2022-08-16T03:34:50.178Z,3.9
2022-08-16T03:36:50.948Z,4.3
2022-08-16T03:38:50.851Z,3.9
2022-08-16T03:40:51.681Z,3.9
2022-08-16T03:43:19.101Z,4.5
2022-08-16T03:45:02.955Z,3.8
2022-08-16T03:46:55.892Z,3.8
2022-08-16T03:48:52.796Z,4.1
2022-08-16T03:51:00.139Z,3.8
2022-08-16T03:52:59.624Z,3.7
2022-08-16T03:54:58.039Z,3.5
2022-08-16T03:56:57.008Z,3.8
2022-08-16T03:58:55.441Z,3.4
2022-08-16T04:00:56.962Z,3.5
2022-08-16T04:02:58.383Z,3.3
2022-08-16T04:04:56.380Z,2.9
2022-08-16T04:06:57.844Z,3
2022-08-16T04:08:57.208Z,3.1
2022-08-16T04:11:00.224Z,3.4
2022-08-16T04:13:04.496Z,3.4
2022-08-16T04:14:59.979Z,3.1
2022-08-16T04:17:06.901Z,3.4
2022-08-16T04:19:02.337Z,3.7
2022-08-16T04:21:01.158Z,3.8
2022-08-16T04:23:01.623Z,3.2
2022-08-16T04:25:07.066Z,3.4
2022-08-16T04:27:02.933Z,3.1
2022-08-16T04:29:15.283Z,3.2
2022-08-16T04:31:04.383Z,3.2
2022-08-16T04:33:05.559Z,3.1
2022-08-16T04:35:13.702Z,3.3
2022-08-16T04:37:08.423Z,3.8
2022-08-16T04:39:06.366Z,3.5
2022-08-16T04:41:07.509Z,3.1
2022-08-16T04:43:08.675Z,3.4
2022-08-16T04:45:10.666Z,3.4
2022-08-16T04:47:24.261Z,3.2
2022-08-16T04:49:09.813Z,3.5
2022-08-16T04:51:15.307Z,3.2
2022-08-16T04:53:12.110Z,3.2
2022-08-16T04:55:15.751Z,3.7
2022-08-16T04:57:12.290Z,3.2
2022-08-16T04:59:12.899Z,3.2
2022-08-16T05:01:13.525Z,3.1
2022-08-16T05:03:17.668Z,3.1
2022-08-16T05:05:17.232Z,3.1
2022-08-16T05:07:30.492Z,2.8
2022-08-16T05:09:17.237Z,3.2
2022-08-16T05:11:17.931Z,3.3
2022-08-16T05:13:18.094Z,3.3
2022-08-16T05:15:18.569Z,3.1
2022-08-16T05:17:19.313Z,3.2
2022-08-16T05:19:39.663Z,3.1
2022-08-16T05:21:22.230Z,3
2022-08-16T05:23:21.216Z,2.8
2022-08-16T05:25:25.077Z,3.3
2022-08-16T05:27:22.905Z,3.3
2022-08-16T05:30:00.879Z,3.1
2022-08-16T05:31:29.468Z,2.9
2022-08-16T05:33:24.576Z,3
2022-08-16T05:35:39.678Z,2.9
2022-08-16T05:37:26.793Z,3.2
2022-08-16T05:39:27.646Z,3.3
2022-08-16T05:41:27.382Z,3.3
2022-08-16T05:43:28.498Z,3.4
2022-08-16T05:45:31.973Z,3.1
2022-08-16T05:47:30.307Z,3.2
2022-08-16T05:49:39.972Z,3
2022-08-16T05:51:37.697Z,3
2022-08-16T05:53:38.672Z,3.5
2022-08-16T05:55:32.309Z,3.5
2022-08-16T05:57:35.439Z,3.1
2022-08-16T05:59:34.608Z,3.3
2022-08-16T06:01:38.311Z,3.3
2022-08-16T06:03:38.846Z,2.9
2022-08-16T06:05:36.288Z,3.2
2022-08-16T06:07:41.601Z,3
2022-08-16T06:09:44.427Z,3
2022-08-16T06:11:38.758Z,2.9
2022-08-16T06:13:42.319Z,3
2022-08-16T06:15:41.514Z,3
2022-08-16T06:17:43.603Z,3.2
2022-08-16T06:19:46.228Z,3.4
2022-08-16T06:21:42.073Z,3.2
2022-08-16T06:23:43.906Z,3.1
2022-08-16T06:25:43.834Z,2.8
2022-08-16T06:27:57.195Z,2.9
2022-08-16T06:29:50.254Z,2.7
2022-08-16T06:31:48.944Z,2.8
2022-08-16T06:33:48.448Z,3.4
2022-08-16T06:35:47.684Z,3
2022-08-16T06:37:51.505Z,3
2022-08-16T06:39:55.616Z,2.6
2022-08-16T06:42:04.645Z,2.6
2022-08-16T06:43:51.748Z,2.8
2022-08-16T06:45:54.885Z,2.7
2022-08-16T06:47:52.799Z,2.5
2022-08-16T06:49:54.350Z,2.7
2022-08-16T06:52:02.633Z,2.4
2022-08-16T06:53:54.406Z,2.8
2022-08-16T06:55:57.489Z,2.6
2022-08-16T06:57:57.103Z,2.6
2022-08-16T06:59:58.478Z,2.4
2022-08-16T07:01:58.823Z,2.6
2022-08-16T07:04:02.740Z,2.4
2022-08-16T07:06:06.374Z,2.8
2022-08-16T07:08:00.473Z,2.7
2022-08-16T07:10:00.629Z,2.6
2022-08-16T07:12:05.573Z,2.6
2022-08-16T07:14:24.491Z,2.3
2022-08-16T07:16:04.612Z,2.3
2022-08-16T07:18:04.425Z,3
2022-08-16T07:20:35.057Z,3.4
2022-08-16T07:22:05.195Z,2.9
2022-08-16T07:24:06.478Z,2.8
2022-08-16T07:26:10.048Z,2.6
2022-08-16T07:28:12.050Z,2.7
2022-08-16T07:30:39.489Z,3.6
2022-08-16T07:32:09.777Z,3.1
2022-08-16T07:34:10.244Z,2.7
2022-08-16T07:36:21.642Z,2.7
2022-08-16T07:38:19.703Z,2.7
2022-08-16T07:40:14.923Z,2.5
2022-08-16T07:42:20.153Z,2.4
2022-08-16T07:44:16.373Z,2.6
2022-08-16T07:46:37.641Z,2.7
2022-08-16T07:48:16.599Z,2.7
2022-08-16T07:50:57.220Z,2.8
2022-08-16T07:52:20.506Z,2.8
2022-08-16T07:54:21.086Z,2.7
2022-08-16T07:56:17.012Z,2.6
2022-08-16T07:58:18.189Z,2.7
2022-08-16T08:00:19.329Z,2.7
2022-08-16T08:02:20.459Z,3.9
2022-08-16T08:04:20.225Z,2.9
2022-08-16T08:06:24.990Z,2.8
2022-08-16T08:08:50.168Z,3.5
2022-08-16T08:10:29.170Z,2.9
2022-08-16T08:12:31.313Z,3.1
2022-08-16T08:14:30.142Z,2.8
2022-08-16T08:16:30.956Z,3.3
2022-08-16T08:18:30.681Z,3.6
2022-08-16T08:20:27.925Z,3.1
2022-08-16T08:22:27.326Z,3.8
2022-08-16T08:24:31.947Z,2.9
2022-08-16T08:26:26.277Z,2.5
2022-08-16T08:28:29.859Z,2.7
2022-08-16T08:30:51.469Z,3.1
2022-08-16T08:32:58.073Z,3
2022-08-16T08:34:28.839Z,2.7
2022-08-16T08:36:33.481Z,2.9
2022-08-16T08:38:44.190Z,3.6
2022-08-16T08:40:31.187Z,2.6
2022-08-16T08:42:31.323Z,3
2022-08-16T08:44:38.415Z,3
2022-08-16T08:46:35.770Z,2.8
2022-08-16T08:48:35.664Z,2.8
2022-08-16T08:50:34.954Z,3
2022-08-16T08:52:37.929Z,3
2022-08-16T08:54:35.125Z,2.5
2022-08-16T08:56:45.970Z,2.8
2022-08-16T08:58:54.330Z,3.1
2022-08-16T09:00:51.131Z,3.1
2022-08-16T09:02:38.179Z,3.3
2022-08-16T09:04:40.125Z,2.9
2022-08-16T09:06:43.233Z,3.2
2022-08-16T09:08:47.407Z,2.7
2022-08-16T09:10:40.987Z,2.8
2022-08-16T09:12:46.643Z,3.2
2022-08-16T09:14:47.181Z,3.2
2022-08-16T09:17:01.128Z,3.2
2022-08-16T09:18:43.664Z,2.9
2022-08-16T09:20:59.646Z,2.7
2022-08-16T09:22:51.172Z,3
2022-08-16T09:24:52.008Z,3.6
2022-08-16T09:26:46.612Z,2.9
2022-08-16T09:29:15.345Z,3.1
2022-08-16T09:30:46.667Z,3.2
2022-08-16T09:32:47.499Z,2.9
2022-08-16T09:34:47.820Z,3.3
2022-08-16T09:36:48.591Z,3.2
2022-08-16T09:38:48.975Z,3.7
2022-08-16T09:40:50.340Z,3.1
2022-08-16T09:42:56.559Z,2.9
2022-08-16T09:45:12.161Z,3.4
2022-08-16T09:46:57.490Z,3.5
2022-08-16T09:48:52.287Z,4.5
2022-08-16T09:50:52.682Z,4.1
2022-08-16T09:52:53.331Z,4.3
2022-08-16T09:54:53.889Z,4.3
2022-08-16T09:56:54.653Z,4
2022-08-16T09:59:04.790Z,4.3
2022-08-16T10:00:56.052Z,4.4
2022-08-16T10:02:56.642Z,4.5
2022-08-16T10:04:57.829Z,4.1
2022-08-16T10:09:06.036Z,5.7
2022-08-16T10:10:58.857Z,4.8
2022-08-16T10:12:59.776Z,7.4
2022-08-16T10:15:00.087Z,4.7
2022-08-16T10:17:03.823Z,4.8
2022-08-16T10:19:06.395Z,4.9
2022-08-16T10:21:01.980Z,4.4
2022-08-16T10:23:07.412Z,5.3
2022-08-16T10:25:04.288Z,6.2
2022-08-16T10:27:25.996Z,5.4
2022-08-16T10:29:05.193Z,5.1
2022-08-16T10:31:07.092Z,5.2
2022-08-16T10:33:05.674Z,5.6
2022-08-16T10:35:07.395Z,5
2022-08-16T10:37:07.052Z,7.7
2022-08-16T10:39:08.503Z,5.9
2022-08-16T10:41:10.337Z,6.6
2022-08-16T10:43:08.963Z,6.4
2022-08-16T10:45:09.891Z,5.7
2022-08-16T10:47:11.555Z,5.3
2022-08-16T10:49:12.512Z,6.4
2022-08-16T10:51:11.812Z,5.7
2022-08-16T10:53:11.779Z,5.6
2022-08-16T10:57:13.053Z,5.1
2022-08-16T10:59:32.905Z,4.9
2022-08-16T11:01:43.616Z,5.9
2022-08-16T11:05:17.511Z,6
2022-08-16T11:09:25.456Z,7.1
2022-08-16T11:11:19.627Z,8.2
2022-08-16T11:13:57.424Z,8.4
2022-08-16T11:15:18.915Z,9.2
2022-08-16T11:17:19.069Z,8.2
2022-08-16T11:19:19.621Z,7.8
2022-08-16T11:21:29.303Z,7.4
2022-08-16T11:23:20.768Z,8
2022-08-16T11:27:24.023Z,7.3
2022-08-16T11:29:22.683Z,7.1
2022-08-16T11:31:23.508Z,7.2
2022-08-16T11:33:51.794Z,6.6
2022-08-16T11:37:27.442Z,7.2
2022-08-16T11:39:25.814Z,6.7
2022-08-16T11:41:29.288Z,6.7
2022-08-16T11:43:29.183Z,6.9
2022-08-16T11:45:27.453Z,6.9
2022-08-16T11:47:28.874Z,6.6
2022-08-16T11:49:28.653Z,8.1
2022-08-16T11:51:29.306Z,7.3
2022-08-16T11:53:35.799Z,7.6
2022-08-16T11:55:31.520Z,6.8
2022-08-16T11:57:31.038Z,6.8
2022-08-16T11:59:32.786Z,6.6
2022-08-16T12:01:44.546Z,7
2022-08-16T12:03:35.276Z,6.9
2022-08-16T12:05:34.215Z,7
2022-08-16T12:07:34.262Z,7.3
2022-08-16T12:09:34.561Z,7.8
2022-08-16T12:11:35.191Z,7
2022-08-16T12:13:36.355Z,6.5
2022-08-16T12:15:36.981Z,6.6
2022-08-16T12:17:38.321Z,6.4
2022-08-16T12:19:37.975Z,9.9
2022-08-16T12:21:58.042Z,12.3
2022-08-16T12:23:38.775Z,10.2
2022-08-16T12:25:39.500Z,9.6
2022-08-16T12:27:40.767Z,10.1
2022-08-16T12:29:40.580Z,9.2
2022-08-16T12:31:59.329Z,8.1
2022-08-16T12:33:44.608Z,7.7
2022-08-16T12:35:45.899Z,8.1
2022-08-16T12:37:46.238Z,8.4
2022-08-16T12:39:50.817Z,8.6
2022-08-16T12:41:45.135Z,8.3
2022-08-16T12:43:45.331Z,8.7
2022-08-16T12:45:48.693Z,8.9
2022-08-16T12:47:46.297Z,8.2
2022-08-16T12:49:46.453Z,8.2
2022-08-16T12:51:58.280Z,8.9
2022-08-16T12:53:48.139Z,8.9
2022-08-16T12:55:49.159Z,11.1
2022-08-16T12:57:57.996Z,9.5
2022-08-16T12:59:49.468Z,9.2
2022-08-16T13:01:50.585Z,9.1
2022-08-16T13:04:08.266Z,8.5
2022-08-16T13:05:55.379Z,7.6
2022-08-16T13:07:53.324Z,6.8
2022-08-16T13:09:52.534Z,5.9
2022-08-16T13:11:58.102Z,5.5
2022-08-16T13:13:54.927Z,5.6
2022-08-16T13:16:02.037Z,5.8
2022-08-16T13:17:55.418Z,5.9
2022-08-16T13:20:07.142Z,6.3
2022-08-16T13:21:55.979Z,6.4
2022-08-16T13:23:56.689Z,6.9
2022-08-16T13:25:58.180Z,8.6
2022-08-16T13:28:03.274Z,7.6
2022-08-16T13:29:58.355Z,7.6
2022-08-16T13:31:59.256Z,7.4
2022-08-16T13:33:59.488Z,7.2
2022-08-16T13:36:02.560Z,7.6
2022-08-16T13:38:00.892Z,7
2022-08-16T13:40:01.799Z,6.8
2022-08-16T13:42:01.878Z,6.3
2022-08-16T13:44:09.048Z,6.5
2022-08-16T13:46:04.762Z,6.9
2022-08-16T13:48:04.414Z,6.3
2022-08-16T13:50:05.112Z,6.5
2022-08-16T13:52:04.992Z,6.8
2022-08-16T13:54:06.094Z,6.8
2022-08-16T13:56:06.187Z,7
2022-08-16T13:58:37.805Z,6.6
2022-08-16T14:00:13.241Z,7.3
2022-08-16T14:02:11.428Z,7.3
2022-08-16T14:04:08.780Z,7
2022-08-16T14:06:10.725Z,6.7
2022-08-16T14:08:09.390Z,8
2022-08-16T14:10:11.979Z,6.7
2022-08-16T14:12:20.549Z,7.5
2022-08-16T14:14:11.271Z,7.1
2022-08-16T14:16:12.503Z,7
2022-08-16T14:18:17.006Z,6.8
2022-08-16T14:20:19.200Z,7.1
2022-08-16T14:22:30.894Z,6.7
2022-08-16T14:24:22.496Z,7.2
2022-08-16T14:26:14.680Z,7
2022-08-16T14:28:15.190Z,6.9
2022-08-16T14:30:17.869Z,6.5
2022-08-16T14:32:33.706Z,7.2
2022-08-16T14:34:17.036Z,7.7
2022-08-16T14:36:18.833Z,7.2
2022-08-16T14:38:19.041Z,7.1
2022-08-16T14:40:19.840Z,6.7
2022-08-16T14:42:23.137Z,6.7
2022-08-16T14:44:19.914Z,7.1
2022-08-16T14:46:20.574Z,9.1
2022-08-16T14:48:25.997Z,9.9
2022-08-16T14:50:24.531Z,8.6
2022-08-16T14:52:44.431Z,7.4
2022-08-16T14:54:27.299Z,7.3
2022-08-16T14:56:38.962Z,7.1
2022-08-16T14:58:35.007Z,7.7
2022-08-16T15:00:27.010Z,8
2022-08-16T15:02:34.491Z,7.9
2022-08-16T15:04:32.236Z,7.7
2022-08-16T15:06:26.533Z,7.2
2022-08-16T15:08:34.187Z,7.5
2022-08-16T15:10:29.327Z,6.7
2022-08-16T15:12:33.282Z,7.4
2022-08-16T15:14:28.563Z,7.2
2022-08-16T15:16:29.352Z,7.5
2022-08-16T15:18:31.951Z,6.2
2022-08-16T15:20:32.988Z,6.6
2022-08-16T15:22:36.333Z,5.7
2022-08-16T15:24:31.459Z,6.2
2022-08-16T15:26:39.125Z,5.4
2022-08-16T15:28:33.405Z,5.2
2022-08-16T15:30:57.447Z,5.1
2022-08-16T15:32:33.749Z,5.2
2022-08-16T15:34:34.264Z,5.6
2022-08-16T15:36:35.665Z,5.6
2022-08-16T15:38:56.315Z,5.4
2022-08-16T15:40:36.500Z,5.7
2022-08-16T15:42:36.923Z,5.5
2022-08-16T15:44:50.940Z,5.9
2022-08-16T15:46:55.010Z,5.7
2022-08-16T15:48:40.368Z,6.3
2022-08-16T15:50:41.063Z,8
2022-08-16T15:52:39.375Z,8.8
2022-08-16T15:54:52.447Z,9.7
2022-08-16T15:56:42.588Z,8.4
2022-08-16T15:58:41.029Z,8.8
2022-08-16T16:00:43.121Z,7.1
2022-08-16T16:02:43.030Z,6.8
2022-08-16T16:04:42.756Z,6.2
2022-08-16T16:06:43.538Z,6.4
2022-08-16T16:08:43.821Z,5.9
2022-08-16T16:10:54.131Z,6.2
2022-08-16T16:12:54.494Z,6.5
2022-08-16T16:14:45.482Z,6.9
2022-08-16T16:16:46.234Z,6.7
2022-08-16T16:18:48.907Z,7.2
2022-08-16T16:20:50.529Z,7.2
2022-08-16T16:22:47.979Z,7.3
2022-08-16T16:24:48.383Z,7
2022-08-16T16:26:48.825Z,6.8
2022-08-16T16:29:07.801Z,6.4
2022-08-16T16:30:52.657Z,6.9
2022-08-16T16:32:50.517Z,6.4
2022-08-16T16:34:50.980Z,6
2022-08-16T16:36:51.530Z,6.7
2022-08-16T16:38:52.489Z,6.5
2022-08-16T16:40:54.147Z,6.7
2022-08-16T16:42:53.383Z,6.5
2022-08-16T16:44:57.514Z,6.8
2022-08-16T16:46:56.856Z,6.6
2022-08-16T16:48:54.758Z,7.2
2022-08-16T16:50:55.456Z,8
2022-08-16T16:52:56.385Z,7.4
2022-08-16T16:54:57.374Z,7.3
2022-08-16T16:56:57.096Z,7
2022-08-16T16:59:01.440Z,6.9
2022-08-16T17:00:59.057Z,6.5
2022-08-16T17:02:59.200Z,6.2
2022-08-16T17:04:59.093Z,6.9
2022-08-16T17:07:01.121Z,6.7
2022-08-16T17:09:00.373Z,7
2022-08-16T17:11:00.614Z,6.4
2022-08-16T17:13:02.025Z,6.6
2022-08-16T17:15:01.722Z,6.2
2022-08-16T17:17:04.781Z,6
2022-08-16T17:19:17.175Z,6.6
2022-08-16T17:21:05.044Z,6.8
2022-08-16T17:23:04.600Z,6.9
2022-08-16T17:25:07.746Z,7.1
2022-08-16T17:27:04.946Z,6.6
2022-08-16T17:29:11.417Z,6.9
2022-08-16T17:31:06.010Z,7.1
2022-08-16T17:33:08.064Z,7.1
2022-08-16T17:35:13.947Z,7
2022-08-16T17:37:08.072Z,7.2
2022-08-16T17:39:07.958Z,7.6
2022-08-16T17:41:08.439Z,7.6
2022-08-16T17:43:10.420Z,7.9
2022-08-16T17:45:09.970Z,8.1
2022-08-16T17:47:10.213Z,8.3
2022-08-16T17:49:10.420Z,8.2
2022-08-16T17:51:11.053Z,8.5
2022-08-16T17:53:12.905Z,9.1
2022-08-16T17:55:19.881Z,9.3
2022-08-16T17:57:12.366Z,9.1
2022-08-16T17:59:12.842Z,9.5
2022-08-16T18:01:13.496Z,9.9
2022-08-16T18:03:17.134Z,9.6
2022-08-16T18:05:14.245Z,9.5
2022-08-16T18:07:15.051Z,9.8
2022-08-16T18:09:15.327Z,9.9
2022-08-16T18:11:17.184Z,10.2
2022-08-16T18:13:16.578Z,10.2
2022-08-16T18:15:17.804Z,10
2022-08-16T18:17:17.269Z,10.8
2022-08-16T18:19:17.674Z,11.2
2022-08-16T18:21:18.232Z,11.7
2022-08-16T18:23:22.021Z,11.9
2022-08-16T18:25:19.173Z,11.6
2022-08-16T18:27:26.292Z,12.2
2022-08-16T18:29:20.085Z,11.9
2022-08-16T18:31:20.568Z,12.5
2022-08-16T18:33:23.253Z,12.2
2022-08-16T18:35:22.209Z,12.5
2022-08-16T18:37:22.684Z,12.3
2022-08-16T18:39:22.714Z,13.1
2022-08-16T18:41:25.832Z,12.7
2022-08-16T18:44:22.585Z,12.8
2022-08-16T18:45:26.390Z,12.4
2022-08-16T18:47:24.504Z,12.1
2022-08-16T18:49:24.960Z,12.8
2022-08-16T18:51:25.750Z,12.7
2022-08-16T18:53:27.788Z,12.6
2022-08-16T18:55:28.451Z,12.4
2022-08-16T18:57:26.878Z,13
2022-08-16T18:59:30.149Z,12.5
2022-08-16T19:01:27.821Z,13.2
2022-08-16T19:03:30.657Z,13.2
2022-08-16T19:05:30.974Z,12.8
2022-08-16T19:07:31.259Z,12.3
2022-08-16T19:09:29.602Z,13.2
2022-08-16T19:11:30.244Z,13.3
2022-08-16T19:13:33.019Z,13.4
2022-08-16T19:15:30.995Z,13.8
2022-08-16T19:17:31.623Z,13.6
2022-08-16T19:19:31.935Z,14
2022-08-16T19:21:32.411Z,13.8
2022-08-16T19:23:35.871Z,13.9
2022-08-16T19:25:46.955Z,14.2
2022-08-16T19:27:34.490Z,14.4
2022-08-16T19:29:34.229Z,14.3
2022-08-16T19:31:34.749Z,14
2022-08-16T19:33:35.943Z,13.2
2022-08-16T19:35:36.672Z,14.1
2022-08-16T19:37:46.080Z,13.8
2022-08-16T19:39:37.356Z,13.6
2022-08-16T19:41:40.195Z,13.8
2022-08-16T19:43:37.517Z,13.6
2022-08-16T19:45:43.851Z,13.7
2022-08-16T19:47:38.386Z,12.9
2022-08-16T19:49:39.348Z,13.8
2022-08-16T19:51:39.373Z,13.5
2022-08-16T19:53:39.771Z,13.3
2022-08-16T19:55:40.771Z,13.3
2022-08-16T19:57:41.531Z,13.5
2022-08-16T19:59:42.124Z,14
2022-08-16T20:01:43.450Z,12.9
2022-08-16T20:03:42.090Z,13.5
2022-08-16T20:05:43.971Z,13.3
2022-08-16T20:07:43.267Z,13.4
2022-08-16T20:09:44.514Z,13.1
2022-08-16T20:11:44.570Z,13.4
2022-08-16T20:13:44.410Z,13.3
2022-08-16T20:15:46.622Z,14.4
2022-08-16T20:17:46.563Z,14.1
2022-08-16T20:19:45.911Z,14.1
2022-08-16T20:21:46.218Z,13.1
2022-08-16T20:23:46.600Z,13.5
2022-08-16T20:25:49.728Z,12.6
2022-08-16T20:27:47.592Z,13.6
2022-08-16T20:29:48.875Z,13.4
2022-08-16T20:31:48.401Z,13.3
2022-08-16T20:33:48.965Z,13.6
2022-08-16T20:35:49.416Z,13.9
2022-08-16T20:37:49.771Z,13.3
2022-08-16T20:40:05.696Z,13.2
2022-08-16T20:41:50.699Z,13.7
2022-08-16T20:43:51.020Z,13.6
2022-08-16T20:45:51.399Z,13.5
2022-08-16T20:47:51.853Z,12.9
2022-08-16T20:49:52.576Z,14.1
2022-08-16T20:51:57.217Z,12.9
2022-08-16T20:53:53.162Z,13.4
2022-08-16T20:55:53.570Z,13
2022-08-16T20:57:53.929Z,13.8
2022-08-16T20:59:54.404Z,13.2
2022-08-16T21:01:55.415Z,12.9
2022-08-16T21:03:55.217Z,12.6
2022-08-16T21:05:56.944Z,13.3
2022-08-16T21:07:56.313Z,13.2
2022-08-16T21:09:56.536Z,13.1
2022-08-16T21:11:58.444Z,13.3
2022-08-16T21:14:00.737Z,13
2022-08-16T21:15:58.386Z,12.6
2022-08-16T21:17:59.060Z,13.6
2022-08-16T21:19:58.648Z,13.3
2022-08-16T21:22:10.221Z,13.2
2022-08-16T21:23:59.589Z,12.9
2022-08-16T21:26:00.035Z,12.7
2022-08-16T21:28:39.159Z,12.7
2022-08-16T21:30:00.786Z,12.7
2022-08-16T21:32:06.257Z,12.5
2022-08-16T21:34:01.568Z,12.9
2022-08-16T21:36:02.935Z,12.9
2022-08-16T21:38:28.712Z,13.3
2022-08-16T21:40:04.363Z,12.4
2022-08-16T21:42:07.662Z,13
2022-08-16T21:44:04.058Z,12.1
2022-08-16T21:46:06.350Z,12.7
2022-08-16T21:48:05.632Z,12.4
2022-08-16T21:50:06.106Z,12.4
2022-08-16T21:52:07.357Z,12.2
2022-08-16T21:54:05.779Z,12.1
2022-08-16T21:56:07.074Z,12.3
2022-08-16T21:58:06.760Z,12.2
2022-08-16T22:00:12.239Z,12.6
2022-08-16T22:02:07.309Z,12.5
2022-08-16T22:04:36.773Z,12.2
2022-08-16T22:06:14.252Z,12.2
2022-08-16T22:08:09.248Z,11.8
2022-08-16T22:11:01.266Z,11.2
2022-08-16T22:12:13.890Z,11.3
2022-08-16T22:14:09.858Z,11.8
2022-08-16T22:16:10.066Z,12.1
2022-08-16T22:18:10.675Z,11.7
2022-08-16T22:20:10.993Z,12.2
2022-08-16T22:22:11.916Z,11.7
2022-08-16T22:24:11.722Z,11.3
2022-08-16T22:26:12.025Z,11.5
2022-08-16T22:28:13.916Z,11.2
2022-08-16T22:30:13.589Z,11.8
2022-08-16T22:32:13.325Z,11.5
2022-08-16T22:34:13.880Z,10.8
2022-08-16T22:36:14.043Z,11.3
2022-08-16T22:38:56.397Z,11.1
2022-08-16T22:40:15.290Z,12
2022-08-16T22:42:15.194Z,10.9
2022-08-16T22:44:16.431Z,11.4
2022-08-16T22:46:15.958Z,10.9
2022-08-16T22:48:16.601Z,11.1
2022-08-16T22:50:17.129Z,11.3
2022-08-16T22:52:50.803Z,11.5
2022-08-16T22:54:40.916Z,11.4
2022-08-16T22:56:18.188Z,10.9
2022-08-16T22:58:18.275Z,11.3
2022-08-16T23:00:21.952Z,11
2022-08-16T23:02:19.140Z,10.8
2022-08-16T23:04:19.623Z,11.1
2022-08-16T23:06:20.564Z,11.1
2022-08-16T23:08:38.031Z,11.5
2022-08-16T23:10:21.302Z,10.3
2022-08-16T23:12:21.064Z,11.1
2022-08-16T23:14:21.585Z,11
2022-08-16T23:16:24.944Z,10.9
2022-08-16T23:18:26.937Z,10.9
2022-08-16T23:20:26.377Z,10.5
2022-08-16T23:22:24.704Z,10.6
2022-08-16T23:24:23.476Z,10.6
2022-08-16T23:26:45.255Z,10.9
2022-08-16T23:28:26.197Z,10.6
2022-08-16T23:30:25.945Z,10.5
2022-08-16T23:32:24.898Z,10.9
2022-08-16T23:34:27.595Z,10.5
2022-08-16T23:36:25.483Z,10.3
2022-08-16T23:38:37.664Z,10.4
2022-08-16T23:40:27.933Z,10.2
2022-08-16T23:42:53.170Z,9.8
2022-08-16T23:44:57.521Z,10.2
2022-08-16T23:46:27.503Z,9.4
2022-08-16T23:48:29.861Z,9.9
2022-08-16T23:50:29.388Z,9.6
2022-08-16T23:52:39.431Z,9.9
2022-08-16T23:54:28.702Z,9.9
2022-08-16T23:56:30.039Z,9.8
2022-08-16T23:58:31.777Z,9.5
